createdAt,value
2019-06-08T00:01:54.871Z,14.50
2019-06-08T00:04:24.255Z,14.13
2019-06-08T00:06:53.735Z,14.47
2019-06-08T00:09:24.073Z,13.75
2019-06-08T00:11:53.600Z,13.98
2019-06-08T00:14:23.412Z,14.05
2019-06-08T00:16:52.863Z,13.93
2019-06-08T00:19:23.562Z,14.83
2019-06-08T00:21:53.046Z,15.20
2019-06-08T00:24:22.482Z,13.95
2019-06-08T00:26:52.262Z,14.38
2019-06-08T00:29:22.435Z,15.68
2019-06-08T00:31:53.448Z,16.37
2019-06-08T00:34:24.892Z,15.10
2019-06-08T00:36:54.612Z,16.00
2019-06-08T00:39:25.086Z,15.28
2019-06-08T00:41:54.749Z,15.60
2019-06-08T00:44:25.474Z,14.65
2019-06-08T00:46:55.177Z,15.32
2019-06-08T00:49:24.755Z,15.60
2019-06-08T00:51:54.512Z,15.38
2019-06-08T00:54:25.661Z,16.02
2019-06-08T00:56:55.513Z,15.90
2019-06-08T00:59:26.227Z,16.02
2019-06-08T01:01:56.053Z,15.20
2019-06-08T01:04:27.154Z,15.75
2019-06-08T01:06:57.679Z,15.60
2019-06-08T01:09:27.068Z,15.48
2019-06-08T01:11:56.509Z,15.60
2019-06-08T01:14:27.107Z,16.73
2019-06-08T01:16:56.621Z,16.37
2019-06-08T01:19:27.394Z,16.62
2019-06-08T01:21:56.890Z,15.68
2019-06-08T01:24:27.800Z,16.73
2019-06-08T01:26:57.528Z,17.75
2019-06-08T01:29:28.369Z,17.23
2019-06-08T01:31:58.325Z,15.83
2019-06-08T01:34:29.152Z,15.60
2019-06-08T01:36:58.580Z,16.85
2019-06-08T01:39:29.508Z,17.25
2019-06-08T01:41:59.135Z,17.45
2019-06-08T01:44:30.065Z,18.48
2019-06-08T01:46:59.672Z,18.20
2019-06-08T01:49:30.475Z,18.87
2019-06-08T01:52:00.021Z,17.87
2019-06-08T01:54:30.139Z,17.32
2019-06-08T01:57:00.754Z,17.50
2019-06-08T01:59:33.053Z,16.93
2019-06-08T02:02:01.929Z,16.40
2019-06-08T02:04:33.532Z,17.12
2019-06-08T02:07:04.146Z,10.60
2019-06-08T02:09:34.873Z,8.10
2019-06-08T02:12:04.312Z,6.03
2019-06-08T02:14:35.379Z,3.62
2019-06-08T02:17:04.789Z,5.30
2019-06-08T02:19:34.826Z,3.00
2019-06-08T02:22:04.396Z,3.22
2019-06-08T02:24:33.881Z,1.90
2019-06-08T02:27:03.206Z,5.20
2019-06-08T02:29:33.711Z,4.08
2019-06-08T02:32:03.369Z,3.83
2019-06-08T02:34:34.986Z,7.53
2019-06-08T02:37:05.645Z,3.08
2019-06-08T02:39:36.058Z,3.10
2019-06-08T02:42:06.499Z,2.80
2019-06-08T02:44:36.386Z,3.10
2019-06-08T02:47:06.235Z,3.50
2019-06-08T02:49:37.496Z,4.15
2019-06-08T02:52:07.943Z,3.55
2019-06-08T02:54:39.422Z,3.02
2019-06-08T02:57:08.729Z,4.30
2019-06-08T02:59:40.588Z,3.40
2019-06-08T03:02:11.546Z,2.35
2019-06-08T03:04:41.448Z,2.62
2019-06-08T03:07:13.259Z,3.37
2019-06-08T03:09:45.348Z,2.90
2019-06-08T03:12:17.718Z,3.92
2019-06-08T03:14:50.181Z,2.40
2019-06-08T03:17:19.475Z,2.83
2019-06-08T03:19:48.847Z,3.22
2019-06-08T03:22:18.669Z,3.85
2019-06-08T03:24:48.072Z,2.58
2019-06-08T03:27:17.473Z,3.12
2019-06-08T03:29:46.865Z,2.77
2019-06-08T03:32:16.215Z,1.80
2019-06-08T03:34:54.372Z,2.17
2019-06-08T03:37:16.790Z,3.02
2019-06-08T03:39:47.421Z,3.92
2019-06-08T03:42:16.948Z,3.33
2019-06-08T03:44:46.879Z,2.40
2019-06-08T03:47:16.252Z,1.75
2019-06-08T03:49:54.915Z,2.37
2019-06-08T03:52:16.830Z,1.40
2019-06-08T03:54:47.038Z,3.40
2019-06-08T03:57:16.455Z,2.50
2019-06-08T03:59:47.631Z,1.65
2019-06-08T04:02:16.921Z,2.03
2019-06-08T04:04:46.438Z,1.87
2019-06-08T04:07:15.791Z,3.42
2019-06-08T04:09:45.951Z,3.10
2019-06-08T04:12:15.551Z,2.83
2019-06-08T04:14:46.469Z,2.37
2019-06-08T04:17:15.999Z,2.40
2019-06-08T04:20:08.248Z,5.33
2019-06-08T04:22:16.501Z,4.67
2019-06-08T04:24:46.635Z,3.15
2019-06-08T04:27:16.230Z,2.47
2019-06-08T04:29:46.241Z,2.75
2019-06-08T04:32:15.818Z,2.35
2019-06-08T04:34:45.971Z,2.83
2019-06-08T04:37:16.594Z,2.55
2019-06-08T04:39:46.961Z,4.17
2019-06-08T04:42:17.313Z,2.92
2019-06-08T04:44:47.157Z,3.17
2019-06-08T04:47:18.113Z,3.15
2019-06-08T04:49:48.809Z,2.98
2019-06-08T04:52:18.583Z,2.45
2019-06-08T04:54:49.692Z,4.20
2019-06-08T04:57:19.253Z,1.15
2019-06-08T04:59:50.362Z,2.55
2019-06-08T05:02:19.751Z,2.35
2019-06-08T05:04:49.511Z,2.05
2019-06-08T05:07:19.623Z,3.60
2019-06-08T05:09:49.515Z,3.12
2019-06-08T05:12:19.091Z,2.92
2019-06-08T05:14:49.275Z,1.50
2019-06-08T05:17:19.068Z,3.10
2019-06-08T05:19:50.301Z,2.47
2019-06-08T05:22:19.679Z,1.90
2019-06-08T05:24:50.045Z,4.47
2019-06-08T05:27:19.807Z,4.30
2019-06-08T05:29:50.110Z,2.52
2019-06-08T05:32:19.703Z,2.80
2019-06-08T05:34:49.676Z,2.92
2019-06-08T05:37:19.252Z,3.22
2019-06-08T05:39:49.796Z,1.72
2019-06-08T05:42:19.441Z,1.30
2019-06-08T05:44:50.303Z,3.05
2019-06-08T05:47:20.123Z,1.40
2019-06-08T05:49:50.076Z,1.30
2019-06-08T05:52:20.187Z,2.92
2019-06-08T05:54:50.207Z,3.02
2019-06-08T05:57:19.628Z,1.70
2019-06-08T05:59:50.201Z,2.05
2019-06-08T06:02:19.800Z,2.37
2019-06-08T06:04:52.112Z,1.70
2019-06-08T06:07:20.431Z,2.95
2019-06-08T06:09:51.087Z,1.98
2019-06-08T06:12:20.617Z,2.12
2019-06-08T06:14:51.268Z,2.20
2019-06-08T06:17:20.863Z,2.35
2019-06-08T06:19:51.509Z,3.17
2019-06-08T06:22:21.061Z,2.10
2019-06-08T06:24:51.623Z,1.60
2019-06-08T06:27:21.203Z,1.67
2019-06-08T06:29:51.774Z,4.30
2019-06-08T06:32:21.421Z,1.07
2019-06-08T06:34:52.032Z,3.05
2019-06-08T06:37:22.102Z,3.33
2019-06-08T06:39:52.288Z,3.65
2019-06-08T06:42:24.782Z,2.07
2019-06-08T06:44:53.056Z,2.12
2019-06-08T06:47:22.747Z,1.98
2019-06-08T06:49:52.608Z,2.60
2019-06-08T06:52:22.086Z,2.27
2019-06-08T06:54:51.541Z,3.42
2019-06-08T06:57:20.920Z,2.20
2019-06-08T06:59:51.944Z,3.12
2019-06-08T07:02:22.419Z,1.22
2019-06-08T07:04:52.251Z,1.47
2019-06-08T07:07:21.691Z,1.55
2019-06-08T07:09:52.627Z,4.42
2019-06-08T07:12:22.893Z,3.42
2019-06-08T07:14:53.262Z,2.40
2019-06-08T07:17:22.794Z,1.77
2019-06-08T07:19:52.616Z,2.02
2019-06-08T07:22:22.414Z,2.20
2019-06-08T07:24:52.605Z,9.38
2019-06-08T07:27:22.217Z,3.15
2019-06-08T07:29:52.611Z,2.25
2019-06-08T07:32:22.262Z,3.27
2019-06-08T07:34:51.657Z,1.60
2019-06-08T07:37:21.519Z,2.67
2019-06-08T07:39:51.627Z,2.52
2019-06-08T07:42:21.070Z,2.10
2019-06-08T07:44:50.811Z,1.32
2019-06-08T07:47:22.089Z,1.22
2019-06-08T07:49:53.231Z,1.30
2019-06-08T07:52:22.866Z,3.42
2019-06-08T07:54:52.964Z,2.08
2019-06-08T07:57:22.656Z,3.70
2019-06-08T07:59:53.321Z,1.62
2019-06-08T08:02:23.204Z,1.55
2019-06-08T08:04:52.567Z,1.62
2019-06-08T08:07:21.972Z,1.67
2019-06-08T08:09:53.167Z,2.90
2019-06-08T08:12:22.531Z,6.03
2019-06-08T08:14:53.314Z,1.82
2019-06-08T08:17:22.891Z,2.50
2019-06-08T08:19:53.070Z,2.25
2019-06-08T08:22:26.138Z,1.42
2019-06-08T08:24:55.698Z,4.50
2019-06-08T08:27:24.879Z,1.27
2019-06-08T08:29:55.396Z,2.95
2019-06-08T08:32:24.996Z,2.30
2019-06-08T08:34:56.463Z,2.45
2019-06-08T08:37:28.001Z,3.00
2019-06-08T08:39:59.663Z,2.45
2019-06-08T08:42:30.171Z,0.82
2019-06-08T08:45:04.717Z,1.67
2019-06-08T08:47:30.901Z,3.27
2019-06-08T08:50:01.859Z,6.65
2019-06-08T08:52:37.213Z,2.52
2019-06-08T08:55:03.744Z,1.52
2019-06-08T08:57:33.465Z,2.17
2019-06-08T09:00:05.118Z,2.15
2019-06-08T09:02:34.709Z,3.15
2019-06-08T09:05:04.774Z,2.05
2019-06-08T09:07:34.245Z,1.27
2019-06-08T09:10:05.158Z,4.00
2019-06-08T09:12:34.617Z,2.90
2019-06-08T09:15:08.542Z,3.72
2019-06-08T09:17:38.865Z,2.00
2019-06-08T09:20:14.760Z,2.77
2019-06-08T09:22:52.960Z,8.90
2019-06-08T09:25:13.706Z,2.37
2019-06-08T09:27:43.274Z,4.50
2019-06-08T09:30:13.589Z,2.80
2019-06-08T09:32:42.983Z,4.65
2019-06-08T09:35:12.480Z,3.72
2019-06-08T09:37:42.018Z,3.25
2019-06-08T09:40:11.844Z,2.30
2019-06-08T09:42:41.298Z,3.00
2019-06-08T09:45:12.037Z,4.15
2019-06-08T09:47:41.414Z,4.17
2019-06-08T09:50:11.521Z,2.10
2019-06-08T09:52:41.544Z,2.00
2019-06-08T09:55:12.303Z,3.92
2019-06-08T09:57:41.654Z,2.72
2019-06-08T10:00:17.801Z,3.20
2019-06-08T10:02:42.950Z,2.20
2019-06-08T10:05:12.947Z,2.55
2019-06-08T10:07:42.746Z,4.00
2019-06-08T10:10:12.465Z,6.72
2019-06-08T10:12:41.842Z,4.67
2019-06-08T10:15:12.120Z,2.75
2019-06-08T10:17:41.491Z,2.95
2019-06-08T10:20:11.480Z,2.85
2019-06-08T10:22:40.950Z,1.50
2019-06-08T10:25:11.339Z,3.33
2019-06-08T10:27:41.006Z,3.27
2019-06-08T10:30:11.811Z,2.58
2019-06-08T10:32:41.205Z,2.00
2019-06-08T10:35:10.918Z,3.00
2019-06-08T10:37:40.395Z,7.80
2019-06-08T10:40:11.933Z,2.54
2019-06-08T10:42:41.301Z,2.72
2019-06-08T10:45:15.032Z,2.98
2019-06-08T10:47:44.854Z,4.12
2019-06-08T10:50:15.940Z,3.17
2019-06-08T10:52:46.660Z,5.65
2019-06-08T10:55:18.031Z,2.60
2019-06-08T10:57:47.913Z,2.00
2019-06-08T11:00:24.110Z,2.35
2019-06-08T11:02:53.863Z,2.72
2019-06-08T11:05:23.232Z,3.10
2019-06-08T11:07:52.665Z,2.98
2019-06-08T11:10:22.067Z,3.03
2019-06-08T11:12:51.465Z,2.47
2019-06-08T11:15:20.858Z,4.23
2019-06-08T11:17:50.336Z,4.65
2019-06-08T11:20:20.017Z,3.10
2019-06-08T11:22:50.092Z,6.75
2019-06-08T11:25:20.081Z,3.03
2019-06-08T11:27:49.638Z,4.15
2019-06-08T11:30:23.394Z,4.57
2019-06-08T11:32:50.279Z,4.00
2019-06-08T11:35:19.859Z,4.63
2019-06-08T11:37:49.258Z,2.95
2019-06-08T11:40:20.800Z,3.47
2019-06-08T11:42:49.852Z,1.87
2019-06-08T11:45:20.962Z,4.30
2019-06-08T11:47:50.482Z,3.02
2019-06-08T11:50:24.457Z,4.58
2019-06-08T11:52:53.835Z,2.92
2019-06-08T11:55:23.210Z,5.37
2019-06-08T11:57:54.119Z,2.35
2019-06-08T12:00:48.885Z,3.57
2019-06-08T12:03:18.227Z,2.98
2019-06-08T12:05:50.928Z,3.92
2019-06-08T12:08:20.966Z,3.75
2019-06-08T12:10:50.501Z,3.92
2019-06-08T12:13:20.018Z,4.65
2019-06-08T12:15:50.444Z,5.25
2019-06-08T12:18:19.849Z,3.87
2019-06-08T12:20:49.225Z,3.90
2019-06-08T12:23:18.668Z,4.95
2019-06-08T12:25:48.046Z,3.63
2019-06-08T12:28:17.941Z,5.30
2019-06-08T12:30:47.920Z,13.62
2019-06-08T12:33:18.815Z,3.02
2019-06-08T12:35:48.718Z,3.12
2019-06-08T12:38:19.143Z,4.15
2019-06-08T12:40:48.777Z,3.65
2019-06-08T12:43:19.829Z,5.30
2019-06-08T12:45:49.267Z,6.45
2019-06-08T12:48:24.816Z,4.35
2019-06-08T12:50:49.829Z,4.22
2019-06-08T12:53:22.848Z,5.85
2019-06-08T12:55:51.193Z,3.17
2019-06-08T12:58:22.054Z,3.70
2019-06-08T13:00:51.507Z,4.20
2019-06-08T13:03:22.581Z,5.28
2019-06-08T13:05:52.040Z,3.50
2019-06-08T13:08:21.912Z,2.70
2019-06-08T13:10:51.281Z,2.98
2019-06-08T13:13:24.485Z,8.65
2019-06-08T13:15:51.752Z,3.27
2019-06-08T13:18:21.482Z,3.55
2019-06-08T13:20:51.824Z,4.83
2019-06-08T13:23:21.439Z,4.45
2019-06-08T13:25:50.850Z,3.47
2019-06-08T13:28:25.085Z,6.40
2019-06-08T13:33:38.376Z,12.73
2019-06-08T13:36:07.774Z,6.85
2019-06-08T13:38:38.079Z,2.60
2019-06-08T13:41:08.775Z,4.55
2019-06-08T13:43:40.498Z,4.83
2019-06-08T13:46:09.579Z,5.85
2019-06-08T13:48:39.338Z,6.47
2019-06-08T13:51:11.846Z,3.50
2019-06-08T13:53:39.880Z,4.58
2019-06-08T13:56:09.265Z,2.85
2019-06-08T13:58:38.774Z,6.08
2019-06-08T14:01:09.944Z,4.50
2019-06-08T14:03:40.971Z,6.53
2019-06-08T14:06:11.596Z,6.85
2019-06-08T14:08:41.334Z,6.75
2019-06-08T14:11:10.801Z,3.62
2019-06-08T14:13:40.246Z,3.80
2019-06-08T14:16:11.493Z,6.72
2019-06-08T14:18:40.813Z,3.80
2019-06-08T14:21:10.245Z,3.95
2019-06-08T14:23:41.422Z,5.62
2019-06-08T14:26:10.894Z,3.73
2019-06-08T14:28:40.359Z,12.00
2019-06-08T14:31:10.926Z,3.10
2019-06-08T14:33:40.479Z,3.72
2019-06-08T14:36:09.926Z,7.25
2019-06-08T14:38:42.034Z,7.00
2019-06-08T14:41:10.439Z,5.20
2019-06-08T14:43:39.837Z,3.62
2019-06-08T14:46:09.185Z,4.33
2019-06-08T14:48:38.648Z,5.72
2019-06-08T14:51:08.801Z,5.35
2019-06-08T14:53:38.825Z,5.60
2019-06-08T14:56:09.066Z,3.65
2019-06-08T14:58:38.850Z,2.75
2019-06-08T15:01:08.324Z,7.67
2019-06-08T15:03:38.120Z,4.28
2019-06-08T15:06:08.301Z,4.78
2019-06-08T15:08:38.918Z,9.05
2019-06-08T15:11:08.773Z,3.47
2019-06-08T15:13:40.472Z,4.03
2019-06-08T15:16:09.585Z,7.08
2019-06-08T15:18:38.952Z,3.22
2019-06-08T15:21:08.349Z,2.67
2019-06-08T15:23:37.858Z,4.47
2019-06-08T15:26:22.780Z,6.35
2019-06-08T15:28:38.276Z,3.42
2019-06-08T15:31:08.444Z,5.20
2019-06-08T15:33:38.519Z,5.62
2019-06-08T15:36:08.474Z,2.67
2019-06-08T15:38:38.262Z,4.40
2019-06-08T15:41:07.863Z,4.20
2019-06-08T15:43:40.165Z,8.85
2019-06-08T15:46:08.807Z,2.87
2019-06-08T15:48:38.307Z,6.15
2019-06-08T15:51:07.973Z,3.45
2019-06-08T15:53:37.890Z,4.25
2019-06-08T15:56:09.009Z,4.30
2019-06-08T15:58:40.465Z,12.33
2019-06-08T16:01:09.526Z,3.80
2019-06-08T16:03:38.973Z,4.47
2019-06-08T16:06:08.398Z,3.65
2019-06-08T16:08:38.100Z,9.73
2019-06-08T16:11:08.973Z,3.08
2019-06-08T16:13:38.349Z,6.42
2019-06-08T16:16:07.738Z,3.85
2019-06-08T16:18:37.601Z,3.60
2019-06-08T16:21:06.997Z,2.42
2019-06-08T16:23:36.456Z,4.55
2019-06-08T16:26:05.862Z,4.42
2019-06-08T16:28:36.316Z,4.00
2019-06-08T16:31:05.745Z,7.00
2019-06-08T16:33:35.475Z,1.95
2019-06-08T16:36:05.361Z,7.60
2019-06-08T16:38:36.286Z,2.98
2019-06-08T16:41:06.057Z,3.60
2019-06-08T16:43:35.425Z,4.17
2019-06-08T16:46:04.828Z,3.05
2019-06-08T16:48:34.666Z,3.80
2019-06-08T16:51:04.305Z,4.85
2019-06-08T16:53:34.168Z,2.12
2019-06-08T16:56:03.863Z,3.62
2019-06-08T16:58:34.298Z,4.72
2019-06-08T17:01:04.432Z,4.50
2019-06-08T17:03:34.872Z,3.25
2019-06-08T17:06:04.473Z,3.08
2019-06-08T17:08:36.807Z,4.58
2019-06-08T17:11:04.992Z,4.25
2019-06-08T17:13:36.076Z,2.98
2019-06-08T17:16:05.631Z,7.22
2019-06-08T17:18:36.220Z,3.83
2019-06-08T17:21:06.624Z,2.60
2019-06-08T17:23:36.534Z,4.37
2019-06-08T17:26:06.626Z,3.67
2019-06-08T17:28:37.186Z,1.57
2019-06-08T17:34:13.318Z,3.00
2019-06-08T17:36:42.980Z,4.85
2019-06-08T17:39:12.367Z,3.67
2019-06-08T17:41:42.332Z,4.45
2019-06-08T17:44:12.096Z,3.45
2019-06-08T17:46:43.064Z,6.42
2019-06-08T17:49:12.618Z,4.12
2019-06-08T17:51:44.294Z,8.33
2019-06-08T17:54:13.138Z,4.83
2019-06-08T17:56:43.539Z,3.87
2019-06-08T17:59:12.932Z,4.60
2019-06-08T18:01:43.571Z,3.67
2019-06-08T18:04:12.978Z,2.22
2019-06-08T18:06:43.390Z,4.37
2019-06-08T18:09:13.495Z,5.00
2019-06-08T18:11:45.225Z,7.92
2019-06-08T18:14:18.041Z,5.83
2019-06-08T18:16:48.693Z,3.20
2019-06-08T18:19:28.951Z,5.40
2019-06-08T18:22:04.291Z,4.42
2019-06-08T18:24:30.114Z,6.22
2019-06-08T18:26:59.804Z,4.65
2019-06-08T18:29:29.203Z,5.28
2019-06-08T18:31:58.623Z,5.72
2019-06-08T18:34:28.741Z,5.42
2019-06-08T18:36:58.531Z,3.87
2019-06-08T18:39:32.732Z,3.05
2019-06-08T18:42:02.317Z,3.58
2019-06-08T18:44:31.975Z,4.85
2019-06-08T18:47:01.346Z,3.12
2019-06-08T18:49:30.727Z,2.22
2019-06-08T18:52:00.115Z,3.25
2019-06-08T18:54:29.501Z,3.77
2019-06-08T18:56:58.949Z,4.35
2019-06-08T18:59:28.744Z,4.47
2019-06-08T19:01:58.271Z,3.70
2019-06-08T19:04:30.877Z,7.05
2019-06-08T19:07:02.916Z,4.62
2019-06-08T19:09:34.171Z,3.62
2019-06-08T19:12:03.565Z,4.87
2019-06-08T19:14:33.144Z,5.90
2019-06-08T19:17:02.502Z,5.58
2019-06-08T19:19:33.153Z,6.20
2019-06-08T19:22:02.797Z,9.53
2019-06-08T19:24:32.289Z,5.10
2019-06-08T19:27:01.766Z,3.35
2019-06-08T19:29:31.134Z,6.37
2019-06-08T19:32:00.850Z,5.00
2019-06-08T19:34:33.268Z,6.10
2019-06-08T19:37:01.339Z,3.50
2019-06-08T19:39:30.699Z,6.47
2019-06-08T19:42:00.261Z,5.80
2019-06-08T19:44:29.617Z,4.75
2019-06-08T19:46:59.196Z,6.37
2019-06-08T19:49:28.550Z,12.15
2019-06-08T19:51:58.400Z,3.42
2019-06-08T19:54:27.887Z,4.60
2019-06-08T19:56:57.775Z,4.75
2019-06-08T19:59:27.607Z,3.35
2019-06-08T20:01:59.645Z,6.08
2019-06-08T20:04:28.930Z,4.15
2019-06-08T20:07:00.640Z,3.65
2019-06-08T20:09:29.551Z,7.05
2019-06-08T20:12:00.275Z,6.10
2019-06-08T20:14:29.770Z,7.12
2019-06-08T20:16:59.221Z,6.05
2019-06-08T20:19:28.733Z,9.70
2019-06-08T20:21:59.089Z,5.50
2019-06-08T20:24:28.432Z,12.95
2019-06-08T20:26:58.085Z,6.45
2019-06-08T20:29:28.213Z,4.50
2019-06-08T20:31:58.494Z,6.47
2019-06-08T20:34:28.186Z,5.35
2019-06-08T20:37:01.185Z,11.65
2019-06-08T20:39:28.649Z,4.70
2019-06-08T20:41:58.766Z,8.68
2019-06-08T20:44:30.355Z,9.10
2019-06-08T20:46:59.809Z,6.28
2019-06-08T20:49:29.868Z,10.32
2019-06-08T20:52:00.421Z,5.72
2019-06-08T20:54:29.991Z,7.67
2019-06-08T20:56:59.382Z,6.87
2019-06-08T20:59:33.136Z,8.48
2019-06-08T21:01:59.937Z,4.45
2019-06-08T21:04:29.345Z,7.17
2019-06-08T21:06:58.699Z,5.70
2019-06-08T21:09:28.161Z,6.55
2019-06-08T21:11:58.705Z,5.25
2019-06-08T21:14:28.380Z,4.10
2019-06-08T21:16:58.636Z,5.87
2019-06-08T21:19:28.512Z,9.85
2019-06-08T21:21:59.285Z,10.25
2019-06-08T21:24:30.285Z,7.58
2019-06-08T21:27:00.867Z,5.85
2019-06-08T21:29:47.136Z,6.33
2019-06-08T21:32:02.702Z,5.50
2019-06-08T21:34:32.556Z,6.78
2019-06-08T21:37:01.932Z,6.30
2019-06-08T21:39:31.301Z,5.25
2019-06-08T21:42:03.000Z,5.25
2019-06-08T21:44:31.783Z,4.60
2019-06-08T21:47:01.654Z,4.78
2019-06-08T21:49:31.183Z,4.87
2019-06-08T21:52:01.272Z,5.62
2019-06-08T21:54:30.912Z,4.45
2019-06-08T21:57:01.090Z,4.70
2019-06-08T21:59:30.761Z,6.28
2019-06-08T22:02:02.616Z,4.10
2019-06-08T22:04:31.225Z,4.53
2019-06-08T22:07:01.630Z,5.12
2019-06-08T22:09:33.060Z,4.78
2019-06-08T22:12:03.320Z,2.95
2019-06-08T22:14:32.763Z,3.47
2019-06-08T22:17:03.146Z,7.12
2019-06-08T22:19:32.600Z,6.00
2019-06-08T22:22:02.553Z,3.87
2019-06-08T22:24:33.065Z,4.45
2019-06-08T22:27:03.677Z,5.35
2019-06-08T22:29:33.078Z,5.67
2019-06-08T22:32:03.850Z,6.80
2019-06-08T22:34:33.322Z,5.15
2019-06-08T22:37:03.028Z,6.50
2019-06-08T22:39:32.407Z,5.28
2019-06-08T22:42:02.148Z,5.47
2019-06-08T22:44:31.514Z,4.37
2019-06-08T22:47:01.979Z,5.05
2019-06-08T22:49:32.340Z,4.67
2019-06-08T22:52:03.042Z,4.25
2019-06-08T22:54:32.799Z,2.92
2019-06-08T22:57:04.391Z,5.95
2019-06-08T22:59:33.269Z,6.05
2019-06-08T23:02:05.332Z,5.37
2019-06-08T23:04:33.777Z,3.95
2019-06-08T23:07:04.884Z,4.12
2019-06-08T23:09:34.244Z,4.33
2019-06-08T23:12:06.278Z,4.20
2019-06-08T23:14:34.764Z,5.70
2019-06-08T23:17:05.464Z,4.50
2019-06-08T23:19:37.252Z,5.00
2019-06-08T23:22:08.300Z,6.00
2019-06-08T23:24:38.257Z,4.72
2019-06-08T23:27:07.981Z,4.85
2019-06-08T23:29:38.436Z,4.42
2019-06-08T23:32:11.388Z,3.45
2019-06-08T23:34:38.935Z,5.25
2019-06-08T23:37:12.553Z,4.35
2019-06-08T23:39:39.410Z,5.28
2019-06-08T23:42:08.792Z,5.90
2019-06-08T23:44:38.164Z,4.08
2019-06-08T23:47:08.173Z,5.40
2019-06-08T23:49:38.109Z,6.42
2019-06-08T23:52:10.483Z,5.62
2019-06-08T23:54:38.742Z,5.70
2019-06-08T23:57:10.085Z,3.45
2019-06-08T23:59:39.621Z,3.58
